Time;durP1;ratioP1;P1;durP2;ratioP2;P2;SDS_P1;SDS_P2;PMS_P1;PMS_P2;Temp;Humidity;BMP_temperature;BMP_pressure;BME280_temperature;BME280_humidity;BME280_pressure;Samples;Min_cycle;Max_cycle;Signal;HPM_P1;HPM_P2
2023/01/17 00:26:30;;;;;;;;;;;27.20;66.60;;;;;;6297391;22;19926;-76
2023/01/17 03:05:06;;;;;;;;;;;27.20;67.00;;;;;;6308622;22;19926;-78
2023/01/17 03:07:32;;;;;;;;;;;27.20;66.00;;;;;;6279939;22;19907;-77
2023/01/17 03:10:00;;;;;;;;;;;27.10;66.00;;;;;;6280703;22;19928;-78
2023/01/17 03:12:27;;;;;;;;;;;27.20;64.60;;;;;;6280219;22;19910;-77
2023/01/17 03:14:54;;;;;;;;;;;27.10;64.80;;;;;;6308079;22;19903;-77
2023/01/17 03:17:21;;;;;;;;;;;27.00;65.20;;;;;;6281030;22;19903;-77
2023/01/17 03:19:48;;;;;;;;;;;26.90;66.40;;;;;;6280759;22;20282;-78
2023/01/17 03:22:15;;;;;;;;;;;26.90;66.60;;;;;;6307955;22;19909;-78
2023/01/17 03:24:41;;;;;;;;;;;26.90;66.30;;;;;;6306937;22;19964;-79
2023/01/17 03:27:08;;;;;;;;;;;26.90;67.70;;;;;;6281879;22;19903;-79
2023/01/17 03:29:35;;;;;;;;;;;26.90;66.30;;;;;;6307507;22;19930;-79
2023/01/17 03:32:01;;;;;;;;;;;26.90;66.70;;;;;;6308024;22;19981;-79
2023/01/17 03:34:28;;;;;;;;;;;27.00;66.80;;;;;;6308871;22;19914;-78
2023/01/17 03:36:55;;;;;;;;;;;27.00;63.60;;;;;;6309979;22;19907;-78
2023/01/17 03:39:21;;;;;;;;;;;27.00;64.20;;;;;;6309703;22;19903;-78
2023/01/17 03:41:48;;;;;;;;;;;27.00;64.50;;;;;;6310072;22;20265;-78
2023/01/17 03:44:15;;;;;;;;;;;27.00;64.80;;;;;;6310088;22;19915;-79
2023/01/17 03:46:41;;;;;;;;;;;27.00;65.10;;;;;;6307749;22;19906;-76
2023/01/17 03:49:08;;;;;;;;;;;27.00;66.20;;;;;;6307940;22;19903;-79
2023/01/17 03:51:35;;;;;;;;;;;27.00;65.90;;;;;;6281622;22;19925;-78
2023/01/17 03:54:02;;;;;;;;;;;26.90;67.50;;;;;;6310304;22;19959;-78
2023/01/17 03:56:29;;;;;;;;;;;26.80;67.80;;;;;;6309857;22;20305;-78
2023/01/17 03:58:57;;;;;;;;;;;26.80;67.60;;;;;;6309704;22;19974;-79
2023/01/17 04:01:24;;;;;;;;;;;26.80;68.50;;;;;;6308723;22;19931;-74
2023/01/17 17:34:38;;;;;;;;;;;21.80;86.50;;;;;;6304643;22;19919;-68
2023/01/17 17:37:05;;;;;;;;;;;21.80;86.60;;;;;;6278727;22;20019;-69
2023/01/17 17:39:32;;;;;;;;;;;21.70;86.60;;;;;;6306291;22;19903;-69
2023/01/17 17:41:58;;;;;;;;;;;21.70;86.70;;;;;;6300783;22;19910;-68
2023/01/17 17:44:26;;;;;;;;;;;21.70;86.90;;;;;;6275183;22;19911;-69
2023/01/17 17:46:52;;;;;;;;;;;21.70;87.00;;;;;;6274739;22;19910;-68
2023/01/17 17:49:21;;;;;;;;;;;21.70;87.00;;;;;;6273883;22;19911;-68
2023/01/17 17:51:48;;;;;;;;;;;21.70;86.90;;;;;;6275337;22;19962;-68
2023/01/17 17:54:15;;;;;;;;;;;21.70;86.80;;;;;;6275765;22;19926;-68
2023/01/17 17:56:48;;;;;;;;;;;21.70;86.90;;;;;;6275239;22;20238;-67
2023/01/17 17:59:17;;;;;;;;;;;21.70;87.00;;;;;;6248050;22;19907;-69
2023/01/17 18:01:44;;;;;;;;;;;21.70;87.00;;;;;;6275264;22;19907;-68
2023/01/17 18:04:11;;;;;;;;;;;21.70;86.90;;;;;;6275734;22;19919;-68
2023/01/17 18:06:38;;;;;;;;;;;21.60;87.00;;;;;;6274949;22;19907;-68
2023/01/17 18:09:05;;;;;;;;;;;21.60;87.10;;;;;;6248046;22;19904;-68
2023/01/17 18:11:32;;;;;;;;;;;21.60;87.00;;;;;;6275635;22;20229;-68
2023/01/17 18:13:59;;;;;;;;;;;21.50;87.10;;;;;;6275734;22;19954;-70
2023/01/17 18:16:27;;;;;;;;;;;21.50;87.10;;;;;;6275507;22;19908;-68
2023/01/17 18:18:55;;;;;;;;;;;21.60;87.10;;;;;;6306166;22;20349;-67
2023/01/17 18:21:23;;;;;;;;;;;21.50;87.00;;;;;;6306325;22;19982;-68
2023/01/17 18:23:55;;;;;;;;;;;21.60;87.10;;;;;;6279767;22;19915;-67
2023/01/17 18:26:23;;;;;;;;;;;21.50;87.20;;;;;;6279019;22;20322;-68
2023/01/17 18:28:50;;;;;;;;;;;21.40;87.30;;;;;;6266241;22;19913;-68
2023/01/17 18:31:17;;;;;;;;;;;21.50;87.30;;;;;;6306475;22;20259;-68
2023/01/17 18:33:44;;;;;;;;;;;21.50;87.40;;;;;;6306741;22;19911;-68
2023/01/17 18:36:10;;;;;;;;;;;21.50;87.30;;;;;;6306428;22;20246;-69
2023/01/17 18:38:42;;;;;;;;;;;21.50;87.40;;;;;;6279280;22;19989;-68
2023/01/17 18:41:10;;;;;;;;;;;21.40;87.20;;;;;;6279667;22;19956;-70
2023/01/17 18:43:37;;;;;;;;;;;21.40;87.40;;;;;;6279407;22;19949;-71
2023/01/17 18:46:04;;;;;;;;;;;21.40;87.50;;;;;;6306695;22;20318;-69
2023/01/17 18:48:30;;;;;;;;;;;21.40;87.50;;;;;;6279389;22;19913;-68
2023/01/17 18:50:58;;;;;;;;;;;21.40;87.50;;;;;;6279671;22;19907;-68
2023/01/17 18:53:24;;;;;;;;;;;21.40;87.50;;;;;;6307044;22;20314;-69
2023/01/17 18:55:54;;;;;;;;;;;21.40;87.50;;;;;;6306598;22;19917;-69
2023/01/17 18:58:21;;;;;;;;;;;21.40;87.70;;;;;;6279255;22;19918;-68
2023/01/17 19:00:49;;;;;;;;;;;21.40;87.70;;;;;;6279668;22;19914;-68
2023/01/17 19:03:17;;;;;;;;;;;21.40;87.70;;;;;;6306441;22;19911;-68
2023/01/17 22:11:16;;;;;;;;;;;26.00;67.80;;;;;;6301831;22;19973;-70
2023/01/17 22:13:43;;;;;;;;;;;26.30;65.10;;;;;;6306609;22;20244;-69
2023/01/17 22:16:12;;;;;;;;;;;26.50;64.50;;;;;;6279005;22;19902;-70
2023/01/17 22:18:39;;;;;;;;;;;26.80;64.70;;;;;;6306304;22;19910;-70
2023/01/17 22:21:07;;;;;;;;;;;26.80;64.60;;;;;;6305568;22;20246;-70
2023/01/17 22:23:33;;;;;;;;;;;27.00;64.40;;;;;;6279287;22;19903;-70
2023/01/17 22:26:03;;;;;;;;;;;27.00;62.90;;;;;;6279398;22;19911;-71
2023/01/17 22:28:31;;;;;;;;;;;26.90;61.40;;;;;;6279212;22;19903;-71
2023/01/17 22:30:58;;;;;;;;;;;26.80;62.50;;;;;;6279121;22;19987;-71
2023/01/17 22:33:25;;;;;;;;;;;27.00;61.90;;;;;;6306472;22;19926;-71
2023/01/17 22:35:58;;;;;;;;;;;27.00;62.00;;;;;;6306634;22;19903;-71
2023/01/17 22:38:24;;;;;;;;;;;27.00;60.50;;;;;;6306189;22;19903;-71
2023/01/17 22:40:51;;;;;;;;;;;27.10;61.50;;;;;;6306178;22;19911;-71
2023/01/17 22:43:18;;;;;;;;;;;27.10;61.30;;;;;;6278851;22;20353;-71
2023/01/17 22:45:45;;;;;;;;;;;27.10;60.90;;;;;;6306204;22;19938;-71
2023/01/17 22:48:12;;;;;;;;;;;27.10;61.20;;;;;;6306104;22;19903;-71
2023/01/17 22:50:38;;;;;;;;;;;27.20;61.30;;;;;;6306159;22;19903;-71
2023/01/17 22:53:05;;;;;;;;;;;27.20;61.90;;;;;;6278684;22;19910;-71
2023/01/17 22:55:32;;;;;;;;;;;27.30;60.90;;;;;;6278987;22;19910;-71
2023/01/17 22:57:58;;;;;;;;;;;27.30;61.30;;;;;;6281364;22;19907;-71
2023/01/17 23:00:25;;;;;;;;;;;27.30;61.00;;;;;;6308384;22;19907;-71
2023/01/17 23:02:52;;;;;;;;;;;27.40;61.00;;;;;;6308360;22;20943;-71
2023/01/17 23:05:19;;;;;;;;;;;27.50;61.00;;;;;;6281123;22;19911;-71
2023/01/17 23:07:48;;;;;;;;;;;27.60;60.80;;;;;;6308599;22;19907;-71
2023/01/17 23:11:37;;;;;;;;;;;27.70;60.90;;;;;;6308780;22;20164;-71
2023/01/17 23:13:01;;;;;;;;;;;27.70;59.90;;;;;;6307331;22;20022;-71
2023/01/17 23:20:57;;;;;;;;;;;28.00;59.00;;;;;;6308683;22;20040;-71
2023/01/17 23:23:24;;;;;;;;;;;28.10;58.80;;;;;;6307558;22;20215;-71
2023/01/17 23:25:50;;;;;;;;;;;28.10;58.60;;;;;;6308623;22;19911;-71
2023/01/17 23:28:19;;;;;;;;;;;28.10;59.00;;;;;;6308279;22;19956;-71
2023/01/17 23:30:46;;;;;;;;;;;28.20;59.20;;;;;;6307621;22;19930;-71
2023/01/17 23:33:14;;;;;;;;;;;28.20;59.50;;;;;;6280801;22;19910;-71
2023/01/17 23:35:41;;;;;;;;;;;28.10;60.20;;;;;;6308544;22;19959;-70
2023/01/17 23:38:32;;;;;;;;;;;28.10;60.00;;;;;;6281374;22;20246;-71
2023/01/17 23:43:52;;;;;;;;;;;28.00;60.90;;;;;;6284468;22;19910;-70
2023/01/17 23:46:19;;;;;;;;;;;27.80;61.50;;;;;;6281080;22;20237;-71
2023/01/17 23:48:46;;;;;;;;;;;27.80;61.70;;;;;;6308173;22;19907;-71
2023/01/17 23:51:13;;;;;;;;;;;27.80;61.20;;;;;;6281138;22;19986;-71
2023/01/17 23:53:39;;;;;;;;;;;27.80;62.00;;;;;;6307764;22;19907;-71
2023/01/17 23:56:17;;;;;;;;;;;27.80;61.90;;;;;;6308175;22;19958;-71
2023/01/17 23:58:44;;;;;;;;;;;27.70;63.00;;;;;;6281132;22;19973;-71
